Monthalia, Texas
Current Conditions -  °F | °C
As of 7:15 AM on Sunday 23 Nov 2014 (Local Time) from KT20 Reporting Station
Clear Clear  
Wind Chill: 55°   Ceiling: Unl
Heat Index: 55°   Visibility: 7mi
Dew Point: 55°   Wind: 0mph
Humidity: 99%   Direction: NA
Pressure: 29.68"   Gusts: NA
Location:  29.4298°N, 97.5714°W
Report Text: KT20 231315Z AUTO 00000KT 7SM CLR 13/13 A2968 RMK AO2 T01260125
Loading
Personal Weather Stations






























Interactive Weather Map New forecast layout! Learn more

10-Day Weather Forecast

Advertisements
Track Severe Weather on mobile